sensor_id;sensor_type;location;lat;lon;timestamp;P1;durP1;ratioP1;P2;durP2;ratioP2
74904;SDS011;63465;50.862;6.220;2022-10-17T00:01:59;10.30;;;6.10;;
74904;SDS011;63465;50.862;6.220;2022-10-17T00:04:26;7.33;;;5.80;;
74904;SDS011;63465;50.862;6.220;2022-10-17T00:06:53;6.40;;;5.50;;
74904;SDS011;63465;50.862;6.220;2022-10-17T00:09:19;9.53;;;6.00;;
74904;SDS011;63465;50.862;6.220;2022-10-17T00:11:46;6.00;;;5.40;;
74904;SDS011;63465;50.862;6.220;2022-10-17T00:14:13;5.60;;;5.07;;
74904;SDS011;63465;50.862;6.220;2022-10-17T00:16:39;8.50;;;5.07;;
74904;SDS011;63465;50.862;6.220;2022-10-17T00:19:07;5.33;;;4.83;;
74904;SDS011;63465;50.862;6.220;2022-10-17T00:21:34;7.23;;;4.90;;
74904;SDS011;63465;50.862;6.220;2022-10-17T00:24:01;6.20;;;4.73;;
74904;SDS011;63465;50.862;6.220;2022-10-17T00:26:27;6.13;;;4.87;;
74904;SDS011;63465;50.862;6.220;2022-10-17T00:28:54;8.03;;;5.13;;
74904;SDS011;63465;50.862;6.220;2022-10-17T00:31:21;5.73;;;5.20;;
74904;SDS011;63465;50.862;6.220;2022-10-17T00:33:49;5.43;;;4.93;;
74904;SDS011;63465;50.862;6.220;2022-10-17T00:36:19;6.47;;;4.90;;
74904;SDS011;63465;50.862;6.220;2022-10-17T00:38:48;6.87;;;5.20;;
74904;SDS011;63465;50.862;6.220;2022-10-17T00:41:17;7.43;;;5.30;;
74904;SDS011;63465;50.862;6.220;2022-10-17T00:43:49;6.57;;;5.10;;
74904;SDS011;63465;50.862;6.220;2022-10-17T00:46:17;11.27;;;5.17;;
74904;SDS011;63465;50.862;6.220;2022-10-17T00:48:44;10.63;;;4.93;;
74904;SDS011;63465;50.862;6.220;2022-10-17T00:51:12;4.97;;;4.47;;
74904;SDS011;63465;50.862;6.220;2022-10-17T00:53:42;7.40;;;5.20;;
74904;SDS011;63465;50.862;6.220;2022-10-17T00:56:08;5.57;;;5.00;;
74904;SDS011;63465;50.862;6.220;2022-10-17T00:58:36;12.50;;;4.83;;
74904;SDS011;63465;50.862;6.220;2022-10-17T01:01:03;5.17;;;4.67;;
74904;SDS011;63465;50.862;6.220;2022-10-17T01:03:30;5.37;;;4.87;;
74904;SDS011;63465;50.862;6.220;2022-10-17T01:05:57;9.17;;;6.10;;
74904;SDS011;63465;50.862;6.220;2022-10-17T01:08:24;7.43;;;5.43;;
74904;SDS011;63465;50.862;6.220;2022-10-17T01:10:53;10.30;;;4.90;;
74904;SDS011;63465;50.862;6.220;2022-10-17T01:13:32;9.90;;;5.50;;
74904;SDS011;63465;50.862;6.220;2022-10-17T01:16:04;6.00;;;4.83;;
74904;SDS011;63465;50.862;6.220;2022-10-17T01:18:48;6.27;;;4.80;;
74904;SDS011;63465;50.862;6.220;2022-10-17T01:21:39;11.57;;;5.33;;
74904;SDS011;63465;50.862;6.220;2022-10-17T01:24:32;8.83;;;5.20;;
74904;SDS011;63465;50.862;6.220;2022-10-17T01:33:25;7.13;;;4.23;;
74904;SDS011;63465;50.862;6.220;2022-10-17T01:35:59;5.20;;;4.33;;
74904;SDS011;63465;50.862;6.220;2022-10-17T01:38:33;8.67;;;4.60;;
74904;SDS011;63465;50.862;6.220;2022-10-17T01:41:05;6.60;;;5.40;;
74904;SDS011;63465;50.862;6.220;2022-10-17T01:43:38;5.73;;;5.13;;
74904;SDS011;63465;50.862;6.220;2022-10-17T01:46:10;4.20;;;3.90;;
74904;SDS011;63465;50.862;6.220;2022-10-17T01:48:43;5.00;;;4.50;;
74904;SDS011;63465;50.862;6.220;2022-10-17T01:51:12;11.03;;;4.90;;
74904;SDS011;63465;50.862;6.220;2022-10-17T01:53:44;5.50;;;4.20;;
74904;SDS011;63465;50.862;6.220;2022-10-17T01:56:14;5.90;;;4.80;;
74904;SDS011;63465;50.862;6.220;2022-10-17T01:58:44;7.17;;;4.07;;
74904;SDS011;63465;50.862;6.220;2022-10-17T02:01:16;14.47;;;5.03;;
74904;SDS011;63465;50.862;6.220;2022-10-17T02:03:47;7.43;;;4.20;;
74904;SDS011;63465;50.862;6.220;2022-10-17T02:06:16;6.77;;;4.30;;
74904;SDS011;63465;50.862;6.220;2022-10-17T02:08:44;6.80;;;4.20;;
74904;SDS011;63465;50.862;6.220;2022-10-17T02:11:14;6.73;;;4.63;;
74904;SDS011;63465;50.862;6.220;2022-10-17T02:13:47;5.30;;;4.60;;
74904;SDS011;63465;50.862;6.220;2022-10-17T02:16:31;6.37;;;4.90;;
74904;SDS011;63465;50.862;6.220;2022-10-17T02:19:16;8.10;;;4.33;;
74904;SDS011;63465;50.862;6.220;2022-10-17T02:22:00;4.17;;;3.73;;
74904;SDS011;63465;50.862;6.220;2022-10-17T02:24:36;9.27;;;4.30;;
74904;SDS011;63465;50.862;6.220;2022-10-17T02:27:14;5.00;;;4.20;;
74904;SDS011;63465;50.862;6.220;2022-10-17T02:29:46;7.07;;;3.93;;
74904;SDS011;63465;50.862;6.220;2022-10-17T02:32:17;9.33;;;4.80;;
74904;SDS011;63465;50.862;6.220;2022-10-17T02:34:51;4.10;;;3.70;;
74904;SDS011;63465;50.862;6.220;2022-10-17T02:37:22;6.57;;;4.30;;
74904;SDS011;63465;50.862;6.220;2022-10-17T02:39:53;16.27;;;4.57;;
74904;SDS011;63465;50.862;6.220;2022-10-17T02:42:21;5.20;;;3.80;;
74904;SDS011;63465;50.862;6.220;2022-10-17T02:44:50;5.23;;;4.83;;
74904;SDS011;63465;50.862;6.220;2022-10-17T02:47:20;4.63;;;4.23;;
74904;SDS011;63465;50.862;6.220;2022-10-17T02:49:53;8.23;;;4.40;;
74904;SDS011;63465;50.862;6.220;2022-10-17T02:52:24;5.93;;;4.40;;
74904;SDS011;63465;50.862;6.220;2022-10-17T02:54:56;6.37;;;4.80;;
74904;SDS011;63465;50.862;6.220;2022-10-17T02:57:28;5.57;;;4.50;;
74904;SDS011;63465;50.862;6.220;2022-10-17T02:59:58;4.87;;;4.37;;
74904;SDS011;63465;50.862;6.220;2022-10-17T03:02:27;7.27;;;4.77;;
74904;SDS011;63465;50.862;6.220;2022-10-17T03:05:06;4.37;;;3.97;;
74904;SDS011;63465;50.862;6.220;2022-10-17T03:07:33;8.30;;;4.80;;
74904;SDS011;63465;50.862;6.220;2022-10-17T03:10:00;7.50;;;4.27;;
74904;SDS011;63465;50.862;6.220;2022-10-17T03:12:28;10.90;;;4.80;;
74904;SDS011;63465;50.862;6.220;2022-10-17T03:14:54;7.03;;;4.40;;
74904;SDS011;63465;50.862;6.220;2022-10-17T03:17:22;7.17;;;4.10;;
74904;SDS011;63465;50.862;6.220;2022-10-17T03:19:48;5.13;;;4.50;;
74904;SDS011;63465;50.862;6.220;2022-10-17T03:22:16;7.90;;;4.73;;
74904;SDS011;63465;50.862;6.220;2022-10-17T03:24:45;7.37;;;4.13;;
74904;SDS011;63465;50.862;6.220;2022-10-17T03:27:11;6.17;;;4.30;;
74904;SDS011;63465;50.862;6.220;2022-10-17T03:29:38;5.10;;;4.17;;
74904;SDS011;63465;50.862;6.220;2022-10-17T03:32:07;12.73;;;4.73;;
74904;SDS011;63465;50.862;6.220;2022-10-17T03:34:35;5.73;;;4.10;;
74904;SDS011;63465;50.862;6.220;2022-10-17T03:37:02;6.17;;;4.77;;
74904;SDS011;63465;50.862;6.220;2022-10-17T03:39:32;12.37;;;4.20;;
74904;SDS011;63465;50.862;6.220;2022-10-17T03:41:59;9.20;;;4.20;;
74904;SDS011;63465;50.862;6.220;2022-10-17T03:44:26;5.30;;;4.53;;
74904;SDS011;63465;50.862;6.220;2022-10-17T03:46:53;5.57;;;4.03;;
74904;SDS011;63465;50.862;6.220;2022-10-17T03:49:19;5.70;;;4.20;;
74904;SDS011;63465;50.862;6.220;2022-10-17T03:51:46;12.93;;;4.30;;
74904;SDS011;63465;50.862;6.220;2022-10-17T03:54:15;7.43;;;4.73;;
74904;SDS011;63465;50.862;6.220;2022-10-17T03:56:43;8.23;;;4.33;;
74904;SDS011;63465;50.862;6.220;2022-10-17T03:59:13;4.93;;;4.40;;
74904;SDS011;63465;50.862;6.220;2022-10-17T04:01:47;8.53;;;4.37;;
74904;SDS011;63465;50.862;6.220;2022-10-17T04:04:14;9.27;;;3.93;;
74904;SDS011;63465;50.862;6.220;2022-10-17T04:06:41;5.70;;;4.77;;
74904;SDS011;63465;50.862;6.220;2022-10-17T04:09:09;7.37;;;4.50;;
74904;SDS011;63465;50.862;6.220;2022-10-17T04:11:52;6.70;;;4.40;;
74904;SDS011;63465;50.862;6.220;2022-10-17T04:14:20;6.07;;;4.27;;
74904;SDS011;63465;50.862;6.220;2022-10-17T04:16:47;5.93;;;4.60;;
74904;SDS011;63465;50.862;6.220;2022-10-17T04:19:17;5.40;;;3.60;;
74904;SDS011;63465;50.862;6.220;2022-10-17T04:21:45;19.93;;;4.43;;
74904;SDS011;63465;50.862;6.220;2022-10-17T04:24:13;11.20;;;3.70;;
74904;SDS011;63465;50.862;6.220;2022-10-17T04:26:53;6.90;;;4.90;;
74904;SDS011;63465;50.862;6.220;2022-10-17T04:29:23;10.80;;;5.13;;
74904;SDS011;63465;50.862;6.220;2022-10-17T04:31:52;4.70;;;4.30;;
74904;SDS011;63465;50.862;6.220;2022-10-17T04:34:47;6.47;;;4.63;;
74904;SDS011;63465;50.862;6.220;2022-10-17T04:37:14;5.40;;;4.57;;
74904;SDS011;63465;50.862;6.220;2022-10-17T04:39:43;5.07;;;4.40;;
74904;SDS011;63465;50.862;6.220;2022-10-17T04:42:11;9.97;;;4.00;;
74904;SDS011;63465;50.862;6.220;2022-10-17T04:44:38;6.10;;;4.23;;
74904;SDS011;63465;50.862;6.220;2022-10-17T04:47:05;7.47;;;5.70;;
74904;SDS011;63465;50.862;6.220;2022-10-17T04:49:33;6.90;;;4.30;;
74904;SDS011;63465;50.862;6.220;2022-10-17T04:52:07;4.73;;;3.90;;
74904;SDS011;63465;50.862;6.220;2022-10-17T04:54:40;6.27;;;4.23;;
74904;SDS011;63465;50.862;6.220;2022-10-17T04:57:10;13.10;;;4.20;;
74904;SDS011;63465;50.862;6.220;2022-10-17T04:59:38;4.20;;;3.90;;
74904;SDS011;63465;50.862;6.220;2022-10-17T05:02:31;7.13;;;4.40;;
74904;SDS011;63465;50.862;6.220;2022-10-17T05:05:00;4.50;;;4.07;;
74904;SDS011;63465;50.862;6.220;2022-10-17T05:07:27;13.10;;;4.17;;
74904;SDS011;63465;50.862;6.220;2022-10-17T05:10:00;8.87;;;4.50;;
74904;SDS011;63465;50.862;6.220;2022-10-17T05:12:29;5.67;;;4.60;;
74904;SDS011;63465;50.862;6.220;2022-10-17T05:14:57;6.60;;;4.07;;
74904;SDS011;63465;50.862;6.220;2022-10-17T05:17:24;5.10;;;4.00;;
74904;SDS011;63465;50.862;6.220;2022-10-17T05:19:51;9.37;;;4.30;;
74904;SDS011;63465;50.862;6.220;2022-10-17T05:22:18;5.17;;;4.67;;
74904;SDS011;63465;50.862;6.220;2022-10-17T05:24:45;4.53;;;4.10;;
74904;SDS011;63465;50.862;6.220;2022-10-17T05:27:12;12.87;;;5.03;;
74904;SDS011;63465;50.862;6.220;2022-10-17T05:29:40;10.40;;;4.33;;
74904;SDS011;63465;50.862;6.220;2022-10-17T05:32:17;5.57;;;4.53;;
74904;SDS011;63465;50.862;6.220;2022-10-17T05:34:44;8.07;;;4.53;;
74904;SDS011;63465;50.862;6.220;2022-10-17T05:37:10;9.40;;;4.70;;
74904;SDS011;63465;50.862;6.220;2022-10-17T05:39:38;8.80;;;4.20;;
74904;SDS011;63465;50.862;6.220;2022-10-17T05:42:06;5.93;;;4.47;;
74904;SDS011;63465;50.862;6.220;2022-10-17T05:44:33;5.03;;;4.30;;
74904;SDS011;63465;50.862;6.220;2022-10-17T05:47:01;4.40;;;3.93;;
74904;SDS011;63465;50.862;6.220;2022-10-17T05:49:28;7.77;;;4.33;;
74904;SDS011;63465;50.862;6.220;2022-10-17T05:51:54;4.13;;;3.83;;
74904;SDS011;63465;50.862;6.220;2022-10-17T05:54:21;6.33;;;4.70;;
74904;SDS011;63465;50.862;6.220;2022-10-17T05:56:50;7.73;;;4.30;;
74904;SDS011;63465;50.862;6.220;2022-10-17T05:59:17;6.47;;;4.57;;
74904;SDS011;63465;50.862;6.220;2022-10-17T06:01:56;9.20;;;4.20;;
74904;SDS011;63465;50.862;6.220;2022-10-17T06:04:24;7.70;;;4.70;;
74904;SDS011;63465;50.862;6.220;2022-10-17T06:06:52;5.90;;;4.63;;
74904;SDS011;63465;50.862;6.220;2022-10-17T06:09:21;7.27;;;4.60;;
74904;SDS011;63465;50.862;6.220;2022-10-17T06:11:51;12.63;;;4.80;;
74904;SDS011;63465;50.862;6.220;2022-10-17T06:14:18;7.10;;;3.60;;
74904;SDS011;63465;50.862;6.220;2022-10-17T06:16:49;6.03;;;4.47;;
74904;SDS011;63465;50.862;6.220;2022-10-17T06:19:15;6.10;;;3.97;;
74904;SDS011;63465;50.862;6.220;2022-10-17T06:21:43;4.40;;;3.87;;
74904;SDS011;63465;50.862;6.220;2022-10-17T06:24:13;8.40;;;4.00;;
74904;SDS011;63465;50.862;6.220;2022-10-17T06:26:41;4.37;;;3.97;;
74904;SDS011;63465;50.862;6.220;2022-10-17T06:29:09;4.93;;;4.40;;
74904;SDS011;63465;50.862;6.220;2022-10-17T06:31:42;8.60;;;3.93;;
74904;SDS011;63465;50.862;6.220;2022-10-17T06:34:09;9.47;;;4.70;;
74904;SDS011;63465;50.862;6.220;2022-10-17T06:36:37;9.30;;;4.33;;
74904;SDS011;63465;50.862;6.220;2022-10-17T06:39:06;8.13;;;4.13;;
74904;SDS011;63465;50.862;6.220;2022-10-17T06:41:38;4.43;;;3.97;;
74904;SDS011;63465;50.862;6.220;2022-10-17T06:44:07;8.70;;;3.80;;
74904;SDS011;63465;50.862;6.220;2022-10-17T06:46:53;6.30;;;3.97;;
74904;SDS011;63465;50.862;6.220;2022-10-17T06:49:21;5.33;;;3.63;;
74904;SDS011;63465;50.862;6.220;2022-10-17T06:51:57;4.70;;;3.83;;
74904;SDS011;63465;50.862;6.220;2022-10-17T06:54:34;9.27;;;3.90;;
74904;SDS011;63465;50.862;6.220;2022-10-17T06:57:29;5.60;;;4.10;;
74904;SDS011;63465;50.862;6.220;2022-10-17T07:00:15;5.20;;;3.53;;
74904;SDS011;63465;50.862;6.220;2022-10-17T07:02:47;4.30;;;3.50;;
74904;SDS011;63465;50.862;6.220;2022-10-17T07:05:14;8.53;;;4.00;;
74904;SDS011;63465;50.862;6.220;2022-10-17T07:07:43;4.90;;;3.90;;
74904;SDS011;63465;50.862;6.220;2022-10-17T07:10:11;12.70;;;4.70;;
74904;SDS011;63465;50.862;6.220;2022-10-17T07:12:39;9.00;;;4.43;;
74904;SDS011;63465;50.862;6.220;2022-10-17T07:15:06;5.40;;;4.17;;
74904;SDS011;63465;50.862;6.220;2022-10-17T07:17:33;5.57;;;4.00;;
74904;SDS011;63465;50.862;6.220;2022-10-17T07:20:00;15.73;;;3.97;;
74904;SDS011;63465;50.862;6.220;2022-10-17T07:22:28;7.17;;;3.80;;
74904;SDS011;63465;50.862;6.220;2022-10-17T07:24:56;5.80;;;3.53;;
74904;SDS011;63465;50.862;6.220;2022-10-17T07:27:29;9.23;;;3.90;;
74904;SDS011;63465;50.862;6.220;2022-10-17T07:29:56;5.83;;;3.77;;
74904;SDS011;63465;50.862;6.220;2022-10-17T07:32:38;4.33;;;3.83;;
74904;SDS011;63465;50.862;6.220;2022-10-17T07:35:07;7.07;;;3.67;;
74904;SDS011;63465;50.862;6.220;2022-10-17T07:37:34;5.07;;;3.83;;
74904;SDS011;63465;50.862;6.220;2022-10-17T07:40:02;5.73;;;3.57;;
74904;SDS011;63465;50.862;6.220;2022-10-17T07:42:32;4.27;;;3.13;;
74904;SDS011;63465;50.862;6.220;2022-10-17T07:44:58;4.70;;;3.70;;
74904;SDS011;63465;50.862;6.220;2022-10-17T07:47:26;4.67;;;3.73;;
74904;SDS011;63465;50.862;6.220;2022-10-17T07:49:55;6.93;;;3.63;;
74904;SDS011;63465;50.862;6.220;2022-10-17T07:52:22;4.90;;;3.50;;
74904;SDS011;63465;50.862;6.220;2022-10-17T07:54:48;5.57;;;3.97;;
74904;SDS011;63465;50.862;6.220;2022-10-17T07:57:15;9.83;;;3.10;;
74904;SDS011;63465;50.862;6.220;2022-10-17T07:59:43;3.67;;;3.37;;
74904;SDS011;63465;50.862;6.220;2022-10-17T08:02:12;6.87;;;3.93;;
74904;SDS011;63465;50.862;6.220;2022-10-17T08:04:45;5.40;;;4.13;;
74904;SDS011;63465;50.862;6.220;2022-10-17T08:07:12;9.03;;;3.20;;
74904;SDS011;63465;50.862;6.220;2022-10-17T08:09:40;6.33;;;3.90;;
74904;SDS011;63465;50.862;6.220;2022-10-17T08:12:07;11.50;;;4.27;;
74904;SDS011;63465;50.862;6.220;2022-10-17T08:14:33;6.43;;;3.40;;
74904;SDS011;63465;50.862;6.220;2022-10-17T08:17:01;6.90;;;4.07;;
74904;SDS011;63465;50.862;6.220;2022-10-17T08:19:28;4.17;;;3.73;;
74904;SDS011;63465;50.862;6.220;2022-10-17T08:21:55;6.50;;;3.50;;
74904;SDS011;63465;50.862;6.220;2022-10-17T08:24:23;9.43;;;3.40;;
74904;SDS011;63465;50.862;6.220;2022-10-17T08:26:50;8.40;;;3.80;;
74904;SDS011;63465;50.862;6.220;2022-10-17T08:29:17;4.40;;;3.53;;
74904;SDS011;63465;50.862;6.220;2022-10-17T08:31:44;6.53;;;3.40;;
74904;SDS011;63465;50.862;6.220;2022-10-17T08:34:12;7.10;;;3.83;;
74904;SDS011;63465;50.862;6.220;2022-10-17T08:36:40;10.63;;;3.43;;
74904;SDS011;63465;50.862;6.220;2022-10-17T08:39:06;12.33;;;3.70;;
74904;SDS011;63465;50.862;6.220;2022-10-17T08:41:40;5.60;;;3.80;;
74904;SDS011;63465;50.862;6.220;2022-10-17T08:44:20;3.27;;;3.07;;
74904;SDS011;63465;50.862;6.220;2022-10-17T08:46:59;6.67;;;3.60;;
74904;SDS011;63465;50.862;6.220;2022-10-17T08:49:33;4.00;;;3.37;;
74904;SDS011;63465;50.862;6.220;2022-10-17T08:52:05;4.30;;;3.70;;
74904;SDS011;63465;50.862;6.220;2022-10-17T08:54:39;4.03;;;3.70;;
74904;SDS011;63465;50.862;6.220;2022-10-17T08:57:10;4.67;;;3.50;;
74904;SDS011;63465;50.862;6.220;2022-10-17T08:59:39;5.60;;;3.40;;
74904;SDS011;63465;50.862;6.220;2022-10-17T09:02:15;4.90;;;2.70;;
74904;SDS011;63465;50.862;6.220;2022-10-17T09:05:02;11.50;;;3.23;;
74904;SDS011;63465;50.862;6.220;2022-10-17T09:07:52;3.60;;;3.23;;
74904;SDS011;63465;50.862;6.220;2022-10-17T09:10:27;6.13;;;3.30;;
74904;SDS011;63465;50.862;6.220;2022-10-17T09:13:04;6.93;;;3.30;;
74904;SDS011;63465;50.862;6.220;2022-10-17T09:15:46;3.50;;;3.20;;
74904;SDS011;63465;50.862;6.220;2022-10-17T09:18:24;11.63;;;3.10;;
74904;SDS011;63465;50.862;6.220;2022-10-17T09:20:58;4.77;;;3.67;;
74904;SDS011;63465;50.862;6.220;2022-10-17T09:23:31;6.20;;;3.33;;
74904;SDS011;63465;50.862;6.220;2022-10-17T09:26:07;6.20;;;3.57;;
74904;SDS011;63465;50.862;6.220;2022-10-17T09:28:38;5.83;;;3.50;;
74904;SDS011;63465;50.862;6.220;2022-10-17T09:31:08;3.70;;;3.30;;
74904;SDS011;63465;50.862;6.220;2022-10-17T09:33:40;5.90;;;3.50;;
74904;SDS011;63465;50.862;6.220;2022-10-17T09:36:10;7.97;;;3.27;;
74904;SDS011;63465;50.862;6.220;2022-10-17T09:38:41;6.70;;;3.53;;
74904;SDS011;63465;50.862;6.220;2022-10-17T09:41:14;7.53;;;3.37;;
74904;SDS011;63465;50.862;6.220;2022-10-17T09:43:44;3.17;;;2.93;;
74904;SDS011;63465;50.862;6.220;2022-10-17T09:46:14;11.57;;;3.73;;
74904;SDS011;63465;50.862;6.220;2022-10-17T09:48:47;5.07;;;3.60;;
74904;SDS011;63465;50.862;6.220;2022-10-17T09:51:18;6.10;;;3.30;;
74904;SDS011;63465;50.862;6.220;2022-10-17T09:53:45;5.80;;;3.00;;
74904;SDS011;63465;50.862;6.220;2022-10-17T09:56:16;8.77;;;3.50;;
74904;SDS011;63465;50.862;6.220;2022-10-17T09:58:44;6.37;;;3.50;;
74904;SDS011;63465;50.862;6.220;2022-10-17T10:01:17;3.80;;;3.30;;
74904;SDS011;63465;50.862;6.220;2022-10-17T10:03:45;4.13;;;3.67;;
74904;SDS011;63465;50.862;6.220;2022-10-17T10:06:13;6.00;;;3.40;;
74904;SDS011;63465;50.862;6.220;2022-10-17T10:08:48;6.47;;;3.40;;
74904;SDS011;63465;50.862;6.220;2022-10-17T10:11:17;8.43;;;3.60;;
74904;SDS011;63465;50.862;6.220;2022-10-17T10:13:48;10.07;;;3.43;;
74904;SDS011;63465;50.862;6.220;2022-10-17T10:16:16;9.00;;;3.57;;
74904;SDS011;63465;50.862;6.220;2022-10-17T10:18:45;6.67;;;3.50;;
74904;SDS011;63465;50.862;6.220;2022-10-17T10:21:13;8.23;;;3.00;;
74904;SDS011;63465;50.862;6.220;2022-10-17T10:23:41;3.57;;;3.27;;
74904;SDS011;63465;50.862;6.220;2022-10-17T10:26:19;3.43;;;3.23;;
74904;SDS011;63465;50.862;6.220;2022-10-17T10:28:52;7.80;;;3.60;;
74904;SDS011;63465;50.862;6.220;2022-10-17T10:31:25;4.70;;;3.40;;
74904;SDS011;63465;50.862;6.220;2022-10-17T10:33:54;7.50;;;3.47;;
74904;SDS011;63465;50.862;6.220;2022-10-17T10:36:22;9.03;;;3.47;;
74904;SDS011;63465;50.862;6.220;2022-10-17T10:38:50;9.83;;;3.67;;
74904;SDS011;63465;50.862;6.220;2022-10-17T10:41:21;7.93;;;3.67;;
74904;SDS011;63465;50.862;6.220;2022-10-17T10:43:51;9.07;;;3.60;;
74904;SDS011;63465;50.862;6.220;2022-10-17T10:46:22;8.40;;;3.70;;
74904;SDS011;63465;50.862;6.220;2022-10-17T10:48:52;5.03;;;3.53;;
74904;SDS011;63465;50.862;6.220;2022-10-17T10:51:22;5.50;;;3.20;;
74904;SDS011;63465;50.862;6.220;2022-10-17T10:53:55;10.43;;;3.40;;
74904;SDS011;63465;50.862;6.220;2022-10-17T10:56:32;10.87;;;3.77;;
74904;SDS011;63465;50.862;6.220;2022-10-17T10:59:03;7.50;;;3.90;;
74904;SDS011;63465;50.862;6.220;2022-10-17T11:01:37;6.53;;;3.70;;
74904;SDS011;63465;50.862;6.220;2022-10-17T11:04:14;7.30;;;3.47;;
74904;SDS011;63465;50.862;6.220;2022-10-17T11:06:46;6.20;;;3.10;;
74904;SDS011;63465;50.862;6.220;2022-10-17T11:09:18;11.40;;;4.67;;
74904;SDS011;63465;50.862;6.220;2022-10-17T11:11:54;7.80;;;3.70;;
74904;SDS011;63465;50.862;6.220;2022-10-17T11:14:30;4.53;;;3.30;;
74904;SDS011;63465;50.862;6.220;2022-10-17T11:17:04;16.63;;;4.03;;
74904;SDS011;63465;50.862;6.220;2022-10-17T11:19:39;4.33;;;3.53;;
74904;SDS011;63465;50.862;6.220;2022-10-17T11:22:11;6.43;;;3.60;;
74904;SDS011;63465;50.862;6.220;2022-10-17T11:24:42;14.93;;;3.50;;
74904;SDS011;63465;50.862;6.220;2022-10-17T11:27:15;6.80;;;3.30;;
74904;SDS011;63465;50.862;6.220;2022-10-17T11:29:41;6.27;;;3.37;;
74904;SDS011;63465;50.862;6.220;2022-10-17T11:32:13;6.40;;;3.30;;
74904;SDS011;63465;50.862;6.220;2022-10-17T11:34:45;9.80;;;3.70;;
74904;SDS011;63465;50.862;6.220;2022-10-17T11:37:14;5.17;;;3.20;;
74904;SDS011;63465;50.862;6.220;2022-10-17T11:39:47;5.63;;;2.43;;
74904;SDS011;63465;50.862;6.220;2022-10-17T11:42:20;5.40;;;2.77;;
74904;SDS011;63465;50.862;6.220;2022-10-17T11:44:52;5.70;;;2.90;;
74904;SDS011;63465;50.862;6.220;2022-10-17T11:47:29;4.17;;;3.10;;
74904;SDS011;63465;50.862;6.220;2022-10-17T11:50:02;8.50;;;3.10;;
74904;SDS011;63465;50.862;6.220;2022-10-17T11:52:40;5.53;;;2.83;;
74904;SDS011;63465;50.862;6.220;2022-10-17T11:55:16;8.73;;;2.93;;
74904;SDS011;63465;50.862;6.220;2022-10-17T11:57:51;4.73;;;2.80;;
74904;SDS011;63465;50.862;6.220;2022-10-17T12:00:29;13.00;;;3.43;;
74904;SDS011;63465;50.862;6.220;2022-10-17T12:03:05;4.23;;;2.70;;
74904;SDS011;63465;50.862;6.220;2022-10-17T12:05:40;5.80;;;2.30;;
74904;SDS011;63465;50.862;6.220;2022-10-17T12:08:16;5.20;;;2.83;;
74904;SDS011;63465;50.862;6.220;2022-10-17T12:10:51;5.20;;;2.70;;
74904;SDS011;63465;50.862;6.220;2022-10-17T12:19:20;5.70;;;2.73;;
74904;SDS011;63465;50.862;6.220;2022-10-17T12:21:54;4.17;;;2.57;;
74904;SDS011;63465;50.862;6.220;2022-10-17T12:24:33;7.60;;;3.07;;
74904;SDS011;63465;50.862;6.220;2022-10-17T12:29:48;7.03;;;2.33;;
74904;SDS011;63465;50.862;6.220;2022-10-17T12:32:16;3.43;;;2.57;;
74904;SDS011;63465;50.862;6.220;2022-10-17T12:34:49;4.17;;;2.67;;
74904;SDS011;63465;50.862;6.220;2022-10-17T12:43:33;10.43;;;3.10;;
74904;SDS011;63465;50.862;6.220;2022-10-17T12:46:02;7.70;;;2.50;;
74904;SDS011;63465;50.862;6.220;2022-10-17T12:51:26;9.17;;;2.63;;
74904;SDS011;63465;50.862;6.220;2022-10-17T12:53:56;9.43;;;2.77;;
74904;SDS011;63465;50.862;6.220;2022-10-17T12:56:34;9.87;;;2.83;;
74904;SDS011;63465;50.862;6.220;2022-10-17T12:59:07;10.13;;;3.10;;
74904;SDS011;63465;50.862;6.220;2022-10-17T13:01:42;10.23;;;2.50;;
74904;SDS011;63465;50.862;6.220;2022-10-17T13:04:13;4.40;;;3.00;;
74904;SDS011;63465;50.862;6.220;2022-10-17T13:06:43;5.97;;;2.90;;
74904;SDS011;63465;50.862;6.220;2022-10-17T13:09:16;4.67;;;2.57;;
74904;SDS011;63465;50.862;6.220;2022-10-17T13:11:48;6.10;;;3.53;;
74904;SDS011;63465;50.862;6.220;2022-10-17T13:14:15;5.50;;;2.40;;
74904;SDS011;63465;50.862;6.220;2022-10-17T13:16:49;2.63;;;2.43;;
74904;SDS011;63465;50.862;6.220;2022-10-17T13:19:20;6.20;;;2.60;;
74904;SDS011;63465;50.862;6.220;2022-10-17T13:21:49;5.87;;;2.30;;
74904;SDS011;63465;50.862;6.220;2022-10-17T13:24:21;6.53;;;3.00;;
74904;SDS011;63465;50.862;6.220;2022-10-17T13:26:48;2.27;;;2.07;;
74904;SDS011;63465;50.862;6.220;2022-10-17T13:29:15;5.97;;;2.30;;
74904;SDS011;63465;50.862;6.220;2022-10-17T13:31:43;6.13;;;2.93;;
74904;SDS011;63465;50.862;6.220;2022-10-17T13:34:14;8.13;;;2.90;;
74904;SDS011;63465;50.862;6.220;2022-10-17T13:36:45;6.93;;;2.93;;
74904;SDS011;63465;50.862;6.220;2022-10-17T13:39:14;6.70;;;2.90;;
74904;SDS011;63465;50.862;6.220;2022-10-17T13:41:45;3.70;;;2.80;;
74904;SDS011;63465;50.862;6.220;2022-10-17T13:44:13;4.33;;;2.57;;
74904;SDS011;63465;50.862;6.220;2022-10-17T13:46:42;6.73;;;3.00;;
74904;SDS011;63465;50.862;6.220;2022-10-17T13:49:11;8.97;;;2.90;;
74904;SDS011;63465;50.862;6.220;2022-10-17T13:51:45;6.97;;;2.87;;
74904;SDS011;63465;50.862;6.220;2022-10-17T13:54:17;7.13;;;2.47;;
74904;SDS011;63465;50.862;6.220;2022-10-17T13:56:54;3.03;;;2.47;;
74904;SDS011;63465;50.862;6.220;2022-10-17T13:59:22;4.63;;;2.70;;
74904;SDS011;63465;50.862;6.220;2022-10-17T14:01:51;3.40;;;2.70;;
74904;SDS011;63465;50.862;6.220;2022-10-17T14:04:19;8.47;;;3.00;;
74904;SDS011;63465;50.862;6.220;2022-10-17T14:06:47;5.63;;;3.13;;
74904;SDS011;63465;50.862;6.220;2022-10-17T14:09:16;4.00;;;2.50;;
74904;SDS011;63465;50.862;6.220;2022-10-17T14:11:55;8.83;;;3.07;;
74904;SDS011;63465;50.862;6.220;2022-10-17T14:14:24;8.67;;;3.07;;
74904;SDS011;63465;50.862;6.220;2022-10-17T14:16:52;4.47;;;2.70;;
74904;SDS011;63465;50.862;6.220;2022-10-17T14:19:22;8.13;;;2.97;;
74904;SDS011;63465;50.862;6.220;2022-10-17T14:21:53;8.70;;;3.07;;
74904;SDS011;63465;50.862;6.220;2022-10-17T14:24:28;10.63;;;3.37;;
74904;SDS011;63465;50.862;6.220;2022-10-17T14:26:56;11.50;;;2.90;;
74904;SDS011;63465;50.862;6.220;2022-10-17T14:29:26;6.30;;;3.23;;
74904;SDS011;63465;50.862;6.220;2022-10-17T14:31:58;15.03;;;3.60;;
74904;SDS011;63465;50.862;6.220;2022-10-17T14:34:30;9.83;;;3.53;;
74904;SDS011;63465;50.862;6.220;2022-10-17T14:37:01;8.20;;;3.40;;
74904;SDS011;63465;50.862;6.220;2022-10-17T14:39:33;9.80;;;3.70;;
74904;SDS011;63465;50.862;6.220;2022-10-17T14:42:00;8.10;;;2.97;;
74904;SDS011;63465;50.862;6.220;2022-10-17T14:44:27;5.37;;;3.40;;
74904;SDS011;63465;50.862;6.220;2022-10-17T14:46:57;7.70;;;3.40;;
74904;SDS011;63465;50.862;6.220;2022-10-17T14:49:36;6.33;;;3.47;;
74904;SDS011;63465;50.862;6.220;2022-10-17T14:54:52;3.90;;;3.47;;
74904;SDS011;63465;50.862;6.220;2022-10-17T14:57:21;8.27;;;3.27;;
74904;SDS011;63465;50.862;6.220;2022-10-17T14:59:51;4.00;;;2.93;;
74904;SDS011;63465;50.862;6.220;2022-10-17T15:02:18;7.20;;;4.40;;
74904;SDS011;63465;50.862;6.220;2022-10-17T15:04:45;5.43;;;3.50;;
74904;SDS011;63465;50.862;6.220;2022-10-17T15:07:12;7.83;;;3.97;;
74904;SDS011;63465;50.862;6.220;2022-10-17T15:09:42;7.83;;;4.23;;
74904;SDS011;63465;50.862;6.220;2022-10-17T15:12:12;7.20;;;4.30;;
74904;SDS011;63465;50.862;6.220;2022-10-17T15:14:41;9.63;;;4.60;;
74904;SDS011;63465;50.862;6.220;2022-10-17T15:17:11;9.70;;;4.20;;
74904;SDS011;63465;50.862;6.220;2022-10-17T15:19:40;8.23;;;3.63;;
74904;SDS011;63465;50.862;6.220;2022-10-17T15:22:07;7.50;;;4.40;;
74904;SDS011;63465;50.862;6.220;2022-10-17T15:24:33;9.50;;;5.03;;
74904;SDS011;63465;50.862;6.220;2022-10-17T15:27:01;17.03;;;5.10;;
74904;SDS011;63465;50.862;6.220;2022-10-17T15:29:28;13.57;;;5.70;;
74904;SDS011;63465;50.862;6.220;2022-10-17T15:31:55;13.37;;;7.13;;
74904;SDS011;63465;50.862;6.220;2022-10-17T15:34:22;13.87;;;7.07;;